createdAt,value
2022-12-31T00:00:08.656Z,99744.69
2022-12-31T00:02:35.435Z,99695.09
2022-12-31T00:05:02.412Z,99658.22
2022-12-31T00:07:29.157Z,99668.41
2022-12-31T00:09:55.660Z,99725.88
2022-12-31T00:12:22.203Z,99744.00
2022-12-31T00:14:48.748Z,99708.19
2022-12-31T00:17:15.366Z,99709.22
2022-12-31T00:19:43.731Z,99698.41
2022-12-31T00:22:10.642Z,99742.19
2022-12-31T00:24:37.212Z,99757.75
2022-12-31T00:27:03.844Z,99775.88
2022-12-31T00:29:30.460Z,99749.13
2022-12-31T00:31:57.033Z,99711.91
2022-12-31T00:34:23.754Z,99714.50
2022-12-31T00:36:50.639Z,99760.38
2022-12-31T00:39:17.358Z,99756.16
2022-12-31T00:41:44.241Z,99708.63
2022-12-31T00:44:12.273Z,99752.41
2022-12-31T00:49:04.784Z,99792.72
2022-12-31T00:51:31.402Z,99718.75
2022-12-31T00:53:58.765Z,99723.75
2022-12-31T00:56:28.752Z,99791.50
2022-12-31T00:58:56.113Z,99795.84
2022-12-31T01:01:25.836Z,99803.88
2022-12-31T01:03:55.569Z,99795.16
2022-12-31T01:06:22.250Z,99779.94
2022-12-31T01:08:50.300Z,99791.38
2022-12-31T01:11:22.466Z,99705.38
2022-12-31T01:13:49.714Z,99795.00
2022-12-31T01:16:17.747Z,99791.38
2022-12-31T01:18:44.399Z,99728.84
2022-12-31T01:21:12.516Z,99779.59
2022-12-31T01:23:39.752Z,99790.75
2022-12-31T01:26:08.503Z,99767.09
2022-12-31T01:28:35.993Z,99695.63
2022-12-31T01:31:07.989Z,99804.75
2022-12-31T01:33:35.478Z,99700.06
2022-12-31T01:36:14.269Z,99805.44
2022-12-31T01:38:41.644Z,99704.44
2022-12-31T01:41:12.312Z,99732.53
2022-12-31T01:43:54.373Z,99810.88
2022-12-31T01:46:28.271Z,99819.56
2022-12-31T01:49:00.268Z,99809.78
2022-12-31T01:51:31.643Z,99746.41
2022-12-31T01:54:00.576Z,99764.69
2022-12-31T01:56:27.314Z,99768.84
2022-12-31T01:58:56.836Z,99772.03
2022-12-31T02:01:31.078Z,99831.53
2022-12-31T02:03:58.563Z,99827.28
2022-12-31T02:06:33.044Z,99816.34
2022-12-31T02:09:00.217Z,99711.13
2022-12-31T02:11:28.667Z,99800.69
2022-12-31T02:14:05.280Z,99821.25
2022-12-31T02:16:37.532Z,99825.31
2022-12-31T02:19:34.909Z,99822.56
2022-12-31T02:22:23.920Z,99767.22
2022-12-31T02:25:08.750Z,99816.88
2022-12-31T02:27:56.109Z,99815.16
2022-12-31T02:30:24.796Z,99813.69
2022-12-31T02:32:58.709Z,99769.47
2022-12-31T02:35:40.813Z,99815.09
2022-12-31T02:38:12.119Z,99780.41
2022-12-31T02:40:39.368Z,99739.41
2022-12-31T02:43:06.145Z,99801.34
2022-12-31T02:45:41.152Z,99818.22
2022-12-31T02:48:39.668Z,99821.88
2022-12-31T02:51:15.656Z,99796.44
2022-12-31T02:54:07.838Z,99819.16
2022-12-31T02:57:04.313Z,99820.38
2022-12-31T02:59:58.159Z,99814.75
2022-12-31T03:02:28.156Z,99815.16
2022-12-31T03:04:56.973Z,99838.53
2022-12-31T03:07:29.951Z,99830.25
2022-12-31T03:09:56.641Z,99795.03
2022-12-31T03:12:44.422Z,99840.81
2022-12-31T03:15:20.499Z,99849.28
2022-12-31T03:17:55.527Z,99843.53
2022-12-31T03:20:47.786Z,99843.16
2022-12-31T03:23:17.881Z,99833.94
2022-12-31T03:25:45.166Z,99780.19
2022-12-31T03:28:16.377Z,99789.41
2022-12-31T03:30:46.795Z,99822.16
2022-12-31T03:33:14.220Z,99800.16
2022-12-31T03:35:43.005Z,99839.06
2022-12-31T03:38:09.544Z,99832.44
2022-12-31T03:40:45.118Z,99775.75
2022-12-31T03:43:12.453Z,99794.50
2022-12-31T03:45:39.350Z,99808.38
2022-12-31T03:48:08.149Z,99781.69
2022-12-31T03:50:35.762Z,99821.47
2022-12-31T03:53:02.586Z,99796.38
2022-12-31T03:55:29.165Z,99798.09
2022-12-31T03:57:55.712Z,99810.34
2022-12-31T04:00:22.915Z,99791.69
2022-12-31T04:02:50.767Z,99856.25
2022-12-31T04:05:18.394Z,99793.16
2022-12-31T04:07:45.344Z,99798.56
2022-12-31T04:10:14.499Z,99847.91
2022-12-31T04:12:41.188Z,99845.41
2022-12-31T04:15:08.846Z,99855.16
2022-12-31T04:17:35.561Z,99794.50
2022-12-31T04:20:02.691Z,99810.75
2022-12-31T04:22:29.387Z,99807.81
2022-12-31T04:24:55.981Z,99796.50
2022-12-31T04:27:22.748Z,99840.38
2022-12-31T04:29:49.291Z,99780.91
2022-12-31T04:32:16.001Z,99816.00
2022-12-31T04:34:42.688Z,99796.84
2022-12-31T04:37:09.294Z,99824.88
2022-12-31T04:39:35.818Z,99835.34
2022-12-31T04:42:02.469Z,99826.88
2022-12-31T04:44:29.144Z,99857.34
2022-12-31T04:46:55.785Z,99863.56
2022-12-31T04:49:22.334Z,99861.19
2022-12-31T04:51:48.986Z,99832.41
2022-12-31T04:54:15.532Z,99853.22
2022-12-31T04:56:42.108Z,99876.34
2022-12-31T04:59:09.981Z,99924.09
2022-12-31T05:01:37.213Z,99874.44
2022-12-31T05:04:04.051Z,99880.84
2022-12-31T05:06:30.614Z,99882.16
2022-12-31T05:08:57.315Z,99887.31
2022-12-31T05:11:24.025Z,99889.72
2022-12-31T05:13:50.580Z,99883.94
2022-12-31T05:16:17.176Z,99870.66
2022-12-31T05:18:43.858Z,99872.63
2022-12-31T05:21:17.952Z,99891.22
2022-12-31T05:23:44.661Z,99831.56
2022-12-31T05:26:11.188Z,99915.41
2022-12-31T05:28:37.837Z,99894.19
2022-12-31T05:31:04.596Z,99924.88
2022-12-31T05:33:31.238Z,99896.16
2022-12-31T05:36:00.584Z,99917.31
2022-12-31T05:38:27.219Z,99876.69
2022-12-31T05:41:05.852Z,99887.44
2022-12-31T05:43:33.011Z,99938.28
2022-12-31T05:46:04.439Z,99948.00
2022-12-31T05:48:31.300Z,99942.78
2022-12-31T05:50:58.190Z,99906.75
2022-12-31T05:53:24.857Z,99945.28
2022-12-31T05:55:51.447Z,99908.78
2022-12-31T05:58:18.263Z,99880.84
2022-12-31T06:00:44.972Z,99942.50
2022-12-31T06:03:11.910Z,99933.91
2022-12-31T06:05:43.039Z,99958.06
2022-12-31T06:08:11.137Z,99919.72
2022-12-31T06:10:39.099Z,99932.84
2022-12-31T06:13:06.230Z,99955.88
2022-12-31T06:15:39.038Z,99909.81
2022-12-31T06:18:06.813Z,99993.53
2022-12-31T06:20:33.852Z,99962.47
2022-12-31T06:23:00.458Z,99890.69
2022-12-31T06:25:27.659Z,99958.81
2022-12-31T06:27:54.346Z,99953.88
2022-12-31T06:30:21.016Z,99964.09
2022-12-31T06:32:47.842Z,100014.78
2022-12-31T06:35:14.630Z,99944.75
2022-12-31T06:37:41.370Z,99994.06
2022-12-31T06:40:08.605Z,99910.97
2022-12-31T06:42:35.255Z,99987.94
2022-12-31T06:45:01.858Z,99964.81
2022-12-31T06:47:28.878Z,99979.22
2022-12-31T06:49:55.388Z,99963.91
2022-12-31T06:52:22.640Z,99996.44
2022-12-31T06:54:49.718Z,99949.84
2022-12-31T06:57:16.756Z,99945.22
2022-12-31T06:59:44.830Z,99934.34
2022-12-31T07:02:26.720Z,100005.00
2022-12-31T07:05:06.494Z,100000.03
2022-12-31T07:08:00.692Z,99959.16
2022-12-31T07:10:29.644Z,100017.81
2022-12-31T07:13:02.815Z,100022.41
2022-12-31T07:16:00.107Z,99977.81
2022-12-31T07:18:38.895Z,100022.72
2022-12-31T07:21:13.570Z,100023.66
2022-12-31T07:23:41.706Z,100009.44
2022-12-31T07:26:36.333Z,99985.28
2022-12-31T07:29:19.892Z,100003.50
2022-12-31T07:31:52.495Z,100052.00
2022-12-31T07:34:19.032Z,100052.56
2022-12-31T07:37:04.452Z,100048.63
2022-12-31T07:39:46.517Z,100008.75
2022-12-31T07:42:37.081Z,99959.69
2022-12-31T07:45:13.092Z,99984.56
2022-12-31T07:47:39.920Z,99990.25
2022-12-31T07:50:13.858Z,99983.06
2022-12-31T07:52:40.740Z,100031.53
2022-12-31T07:55:07.559Z,100040.97
2022-12-31T07:57:38.651Z,100048.25
2022-12-31T08:00:13.843Z,100030.31
2022-12-31T08:03:31.293Z,100084.06
2022-12-31T08:06:12.569Z,100084.63
2022-12-31T08:08:58.785Z,100085.75
2022-12-31T08:11:41.173Z,100054.03
2022-12-31T08:14:12.161Z,100089.09
2022-12-31T08:16:39.191Z,100024.28
2022-12-31T08:19:06.299Z,100071.00
2022-12-31T08:21:48.637Z,100079.16
2022-12-31T08:24:22.739Z,100102.72
2022-12-31T08:27:19.580Z,100081.56
2022-12-31T08:29:49.275Z,100101.56
2022-12-31T08:32:32.489Z,100078.16
2022-12-31T08:35:47.101Z,100066.09
2022-12-31T08:38:43.564Z,100122.69
2022-12-31T08:41:20.692Z,100071.63
2022-12-31T08:43:58.355Z,100125.69
2022-12-31T08:46:31.373Z,100108.59
2022-12-31T08:48:58.230Z,100131.91
2022-12-31T08:51:26.725Z,100128.81
2022-12-31T08:53:55.195Z,100076.84
2022-12-31T08:56:50.642Z,100139.19
2022-12-31T08:59:23.935Z,100117.41
2022-12-31T09:02:07.332Z,100153.94
2022-12-31T09:04:57.269Z,100166.91
2022-12-31T09:07:37.259Z,100141.31
2022-12-31T09:10:34.884Z,100164.88
2022-12-31T09:13:23.412Z,100169.13
2022-12-31T09:16:28.415Z,100173.63
2022-12-31T09:18:55.043Z,100136.78
2022-12-31T09:21:21.899Z,100166.94
2022-12-31T09:23:48.783Z,100152.69
2022-12-31T09:26:37.849Z,100187.41
2022-12-31T09:29:10.296Z,100116.41
2022-12-31T09:31:48.156Z,100143.91
2022-12-31T09:34:33.696Z,100176.00
2022-12-31T09:37:06.599Z,100102.56
2022-12-31T09:39:43.998Z,100182.22
2022-12-31T09:42:44.952Z,100207.19
2022-12-31T09:45:41.392Z,100196.22
2022-12-31T09:48:37.737Z,100198.59
2022-12-31T09:51:26.453Z,100200.16
2022-12-31T09:54:14.884Z,100194.28
2022-12-31T09:57:08.056Z,100154.47
2022-12-31T09:59:45.622Z,100133.59
2022-12-31T10:02:47.397Z,100148.88
2022-12-31T10:05:26.481Z,100115.81
2022-12-31T10:08:27.621Z,100180.66
2022-12-31T10:11:10.575Z,100187.56
2022-12-31T10:13:58.492Z,100183.56
2022-12-31T10:16:32.108Z,100180.13
2022-12-31T10:19:13.970Z,100171.28
2022-12-31T10:22:10.914Z,100129.47
2022-12-31T10:24:54.466Z,100168.53
2022-12-31T10:27:30.544Z,100108.41
2022-12-31T10:30:13.050Z,100163.88
2022-12-31T10:32:45.802Z,100153.72
2022-12-31T10:35:15.027Z,100153.78
2022-12-31T10:38:01.047Z,100153.56
2022-12-31T10:41:10.099Z,100154.69
2022-12-31T10:43:42.796Z,100159.50
2022-12-31T10:46:23.234Z,100144.84
2022-12-31T10:49:11.186Z,100128.19
2022-12-31T10:51:56.001Z,100135.78
2022-12-31T10:54:31.779Z,100136.09
2022-12-31T10:57:35.955Z,100136.66
2022-12-31T11:00:11.810Z,100133.00
2022-12-31T11:02:53.676Z,100130.72
2022-12-31T11:05:43.999Z,100102.41
2022-12-31T11:08:48.174Z,100134.56
2022-12-31T11:11:33.119Z,100124.53
2022-12-31T11:14:08.847Z,100129.50
2022-12-31T11:16:48.967Z,100107.16
2022-12-31T11:19:29.059Z,100121.69
2022-12-31T11:22:14.347Z,100123.38
2022-12-31T11:24:59.301Z,100117.84
2022-12-31T11:27:47.591Z,100115.91
2022-12-31T11:30:25.181Z,100107.75
2022-12-31T11:33:28.685Z,100116.09
2022-12-31T11:36:13.609Z,100121.69
2022-12-31T11:39:16.899Z,100112.03
2022-12-31T11:41:52.118Z,100062.94
2022-12-31T11:44:38.912Z,100096.31
2022-12-31T11:47:05.541Z,100100.47
2022-12-31T11:49:35.111Z,100105.22
2022-12-31T11:52:35.508Z,100092.00
2022-12-31T11:55:25.465Z,100091.44
2022-12-31T11:57:53.605Z,100097.50
2022-12-31T12:00:23.763Z,100075.69
2022-12-31T12:02:53.981Z,100036.34
2022-12-31T12:05:23.516Z,100089.16
2022-12-31T12:07:51.064Z,100052.75
2022-12-31T12:10:27.854Z,100065.75
2022-12-31T12:12:59.477Z,100076.03
2022-12-31T12:15:35.597Z,100006.00
2022-12-31T12:18:09.599Z,100060.41
2022-12-31T12:20:40.384Z,100005.91
2022-12-31T12:23:16.763Z,100071.78
2022-12-31T12:25:44.818Z,100071.06
2022-12-31T12:28:18.633Z,100053.31
2022-12-31T12:31:00.524Z,100073.38
2022-12-31T12:33:30.040Z,100045.66
2022-12-31T12:36:10.628Z,100048.91
2022-12-31T12:38:37.951Z,100018.13
2022-12-31T12:41:09.797Z,100008.56
2022-12-31T12:43:37.791Z,100052.53
2022-12-31T12:46:26.412Z,100028.25
2022-12-31T12:48:58.362Z,99994.44
2022-12-31T12:51:44.413Z,100064.84
2022-12-31T12:54:37.202Z,99963.41
2022-12-31T12:57:34.632Z,100048.81
2022-12-31T13:00:23.156Z,100027.22
2022-12-31T13:02:54.095Z,100041.91
2022-12-31T13:05:37.950Z,99992.31
2022-12-31T13:08:10.562Z,100035.34
2022-12-31T13:11:15.987Z,100040.94
2022-12-31T13:13:48.420Z,100044.97
2022-12-31T13:16:45.910Z,99981.63
2022-12-31T13:19:52.110Z,99952.78
2022-12-31T13:22:48.482Z,100043.03
2022-12-31T13:25:38.581Z,99964.28
2022-12-31T13:28:11.103Z,100023.66
2022-12-31T13:30:49.995Z,100036.75
2022-12-31T13:33:19.004Z,100034.78
2022-12-31T13:35:59.842Z,99982.28
2022-12-31T13:38:35.035Z,100034.53
2022-12-31T13:41:10.800Z,100042.94
2022-12-31T13:43:50.781Z,100049.16
2022-12-31T13:46:48.865Z,100050.03
2022-12-31T13:49:24.122Z,100001.91
2022-12-31T13:51:58.857Z,100009.50
2022-12-31T13:54:51.547Z,100046.56
2022-12-31T13:57:43.376Z,100024.47
2022-12-31T14:00:24.300Z,100044.47
2022-12-31T14:03:14.382Z,99955.47
2022-12-31T14:05:49.503Z,99974.91
2022-12-31T14:08:16.343Z,99976.59
2022-12-31T14:10:57.666Z,100056.19
2022-12-31T14:13:34.622Z,100056.19
2022-12-31T14:16:16.457Z,100061.00
2022-12-31T14:19:01.522Z,100060.00
2022-12-31T14:21:54.926Z,99951.78
2022-12-31T14:24:30.610Z,100066.34
2022-12-31T14:27:03.620Z,100026.88
2022-12-31T14:29:51.995Z,100072.69
2022-12-31T14:32:27.247Z,100013.75
2022-12-31T14:35:12.802Z,100092.34
2022-12-31T14:38:14.901Z,100079.16
2022-12-31T14:40:56.340Z,100008.94
2022-12-31T14:44:07.452Z,100095.66
2022-12-31T14:46:50.284Z,100058.78
2022-12-31T14:49:39.825Z,100107.31
2022-12-31T14:52:09.487Z,100097.84
2022-12-31T14:54:38.034Z,100098.53
2022-12-31T14:57:54.476Z,100116.69
2022-12-31T15:00:38.171Z,100118.53
2022-12-31T15:03:06.344Z,100060.75
2022-12-31T15:05:36.229Z,100106.75
2022-12-31T15:08:17.894Z,100058.88
2022-12-31T15:11:02.719Z,100132.81
2022-12-31T15:13:29.321Z,100134.41
2022-12-31T15:16:11.149Z,100137.72
2022-12-31T15:19:13.572Z,100147.38
2022-12-31T15:21:56.792Z,100126.22
2022-12-31T15:24:30.630Z,100143.75
2022-12-31T15:27:06.585Z,100142.06
2022-12-31T15:29:43.427Z,100123.47
2022-12-31T15:32:19.008Z,100108.75
2022-12-31T15:34:45.685Z,100069.28
2022-12-31T15:37:36.310Z,100153.59
2022-12-31T15:40:15.147Z,100149.06
2022-12-31T15:43:09.714Z,100158.31
2022-12-31T15:45:42.206Z,100121.13
2022-12-31T15:49:04.235Z,100163.78
2022-12-31T15:52:06.889Z,100107.16
2022-12-31T15:54:41.076Z,100156.94
2022-12-31T15:57:17.226Z,100172.34
2022-12-31T15:59:44.821Z,100128.59
2022-12-31T16:02:23.199Z,100169.69
2022-12-31T16:04:50.371Z,100097.66
2022-12-31T16:07:18.096Z,100147.44
2022-12-31T16:09:51.288Z,100116.22
2022-12-31T16:12:29.196Z,100070.28
2022-12-31T16:14:59.743Z,100139.53
2022-12-31T16:17:33.295Z,100163.66
2022-12-31T16:20:03.037Z,100186.22
2022-12-31T16:22:38.444Z,100213.09
2022-12-31T16:27:54.412Z,100187.06
2022-12-31T16:30:30.301Z,100102.13
2022-12-31T16:33:03.172Z,100124.88
2022-12-31T16:35:36.304Z,100136.91
2022-12-31T16:38:16.252Z,100217.34
2022-12-31T16:41:03.937Z,100222.06
2022-12-31T16:43:37.918Z,100164.69
2022-12-31T16:46:12.559Z,100219.97
2022-12-31T16:48:39.520Z,100219.09
2022-12-31T16:51:06.769Z,100202.38
2022-12-31T16:53:38.077Z,100201.13
2022-12-31T16:56:10.539Z,100183.03
2022-12-31T16:58:42.443Z,100226.66
2022-12-31T17:01:13.415Z,100209.22
2022-12-31T17:03:45.650Z,100169.31
2022-12-31T17:06:15.975Z,100161.53
2022-12-31T17:09:00.752Z,100238.63
2022-12-31T17:11:30.819Z,100238.09
2022-12-31T17:14:06.735Z,100231.44
2022-12-31T17:17:02.273Z,100239.81
2022-12-31T17:19:38.932Z,100244.53
2022-12-31T17:22:29.783Z,100224.88
2022-12-31T17:25:21.862Z,100250.59
2022-12-31T17:27:55.533Z,100184.75
2022-12-31T17:30:42.707Z,100256.69
2022-12-31T17:33:09.220Z,100258.72
2022-12-31T17:35:41.911Z,100258.00
2022-12-31T17:38:17.708Z,100256.41
2022-12-31T17:40:51.253Z,100190.69
2022-12-31T17:43:21.295Z,100155.47
2022-12-31T17:45:51.357Z,100256.78
2022-12-31T17:48:19.793Z,100241.38
2022-12-31T17:50:54.591Z,100250.28
2022-12-31T17:53:21.806Z,100165.78
2022-12-31T17:55:51.275Z,100192.22
2022-12-31T17:58:27.764Z,100254.66
2022-12-31T18:00:57.050Z,100248.94
2022-12-31T18:03:23.836Z,100160.56
2022-12-31T18:05:50.800Z,100266.47
2022-12-31T18:08:17.387Z,100160.91
2022-12-31T18:10:44.956Z,100173.97
2022-12-31T18:13:23.805Z,100253.41
2022-12-31T18:15:50.768Z,100209.31
2022-12-31T18:18:24.430Z,100261.81
2022-12-31T18:20:54.993Z,100214.03
2022-12-31T18:23:33.158Z,100259.69
2022-12-31T18:25:59.788Z,100161.03
2022-12-31T18:28:26.412Z,100215.09
2022-12-31T18:30:53.110Z,100181.44
2022-12-31T18:33:22.469Z,100170.91
2022-12-31T18:36:08.137Z,100213.63
2022-12-31T18:38:35.882Z,100267.38
2022-12-31T18:41:02.500Z,100206.41
2022-12-31T18:43:29.118Z,100266.00
2022-12-31T18:45:56.183Z,100244.66
2022-12-31T18:48:23.228Z,100224.56
2022-12-31T18:50:50.579Z,100176.72
2022-12-31T18:53:23.009Z,100290.03
2022-12-31T18:55:57.390Z,100260.91
2022-12-31T18:58:24.364Z,100236.66
2022-12-31T19:00:51.696Z,100207.72
2022-12-31T19:03:23.987Z,100298.19
2022-12-31T19:05:51.835Z,100255.41
2022-12-31T19:08:20.856Z,100318.38
2022-12-31T19:10:49.333Z,100315.44
2022-12-31T19:13:18.076Z,100314.78
2022-12-31T19:15:52.092Z,100276.28
2022-12-31T19:18:19.417Z,100314.59
2022-12-31T19:20:46.281Z,100228.88
2022-12-31T19:23:19.455Z,100296.09
2022-12-31T19:25:47.662Z,100279.94
2022-12-31T19:28:19.490Z,100226.44
2022-12-31T19:30:46.344Z,100215.53
2022-12-31T19:33:14.001Z,100247.84
2022-12-31T19:35:41.583Z,100293.22
2022-12-31T19:38:28.746Z,100248.13
2022-12-31T19:40:55.662Z,100289.28
2022-12-31T19:43:23.535Z,100305.63
2022-12-31T19:45:51.625Z,100315.84
2022-12-31T19:48:20.899Z,100232.56
2022-12-31T19:50:53.157Z,100252.25
2022-12-31T19:53:25.143Z,100315.81
2022-12-31T19:55:53.283Z,100317.94
2022-12-31T19:58:21.350Z,100336.22
2022-12-31T20:00:55.567Z,100270.97
2022-12-31T20:03:24.364Z,100281.56
2022-12-31T20:05:51.543Z,100290.25
2022-12-31T20:08:20.432Z,100304.50
2022-12-31T20:10:47.380Z,100242.97
2022-12-31T20:13:14.111Z,100270.69
2022-12-31T20:15:47.681Z,100295.03
2022-12-31T20:18:17.397Z,100290.38
2022-12-31T20:20:53.431Z,100234.53
2022-12-31T20:23:22.257Z,100266.84
2022-12-31T20:25:59.226Z,100280.78
2022-12-31T20:28:26.158Z,100305.66
2022-12-31T20:30:53.058Z,100264.13
2022-12-31T20:33:20.028Z,100240.06
2022-12-31T20:35:46.647Z,100233.44
2022-12-31T20:38:13.272Z,100252.47
2022-12-31T20:40:46.228Z,100315.53
2022-12-31T20:43:13.359Z,100298.13
2022-12-31T20:45:41.310Z,100276.84
2022-12-31T20:48:08.310Z,100330.91
2022-12-31T20:50:35.139Z,100273.69
2022-12-31T20:53:02.114Z,100262.81
2022-12-31T20:55:30.747Z,100340.19
2022-12-31T20:57:57.392Z,100278.59
2022-12-31T21:00:23.917Z,100295.31
2022-12-31T21:02:57.875Z,100270.34
2022-12-31T21:05:33.794Z,100288.97
2022-12-31T21:08:00.586Z,100321.41
2022-12-31T21:10:27.152Z,100233.09
2022-12-31T21:12:53.721Z,100215.69
2022-12-31T21:15:21.644Z,100294.13
2022-12-31T21:17:48.280Z,100297.44
2022-12-31T21:20:14.861Z,100245.81
2022-12-31T21:22:41.607Z,100283.09
2022-12-31T21:25:09.892Z,100304.22
2022-12-31T21:27:36.609Z,100322.06
2022-12-31T21:30:19.919Z,100309.31
2022-12-31T21:32:46.991Z,100232.91
2022-12-31T21:38:04.964Z,100336.34
2022-12-31T21:40:31.905Z,100273.50
2022-12-31T21:42:58.880Z,100213.00
2022-12-31T21:45:25.466Z,100265.34
2022-12-31T21:48:10.595Z,100269.72
2022-12-31T21:50:37.307Z,100315.63
2022-12-31T21:53:03.909Z,100264.41
2022-12-31T21:55:49.249Z,100267.59
2022-12-31T21:58:31.761Z,100282.69
2022-12-31T22:01:18.236Z,100338.22
2022-12-31T22:03:45.067Z,100324.69
2022-12-31T22:06:16.201Z,100305.38
2022-12-31T22:08:44.529Z,100243.59
2022-12-31T22:11:12.231Z,100338.78
2022-12-31T22:13:39.621Z,100315.63
2022-12-31T22:16:07.259Z,100299.75
2022-12-31T22:18:38.594Z,100343.38
2022-12-31T22:21:10.795Z,100338.41
2022-12-31T22:23:41.442Z,100342.88
2022-12-31T22:26:10.611Z,100322.34
2022-12-31T22:28:40.431Z,100333.19
2022-12-31T22:31:24.540Z,100334.25
2022-12-31T22:33:51.549Z,100235.25
2022-12-31T22:36:20.624Z,100286.59
2022-12-31T22:38:48.037Z,100340.22
2022-12-31T22:41:20.038Z,100243.53
2022-12-31T22:43:48.899Z,100342.88
2022-12-31T22:46:19.252Z,100279.72
2022-12-31T22:48:45.906Z,100306.19
2022-12-31T22:51:13.989Z,100266.38
2022-12-31T22:53:41.350Z,100347.13
2022-12-31T22:56:09.180Z,100333.94
2022-12-31T22:58:36.473Z,100345.00
2022-12-31T23:01:08.289Z,100345.63
2022-12-31T23:03:35.322Z,100264.69
2022-12-31T23:06:02.001Z,100298.53
2022-12-31T23:08:28.623Z,100284.28
2022-12-31T23:11:03.704Z,100312.28
2022-12-31T23:13:55.095Z,100348.19
2022-12-31T23:16:41.889Z,100348.81
2022-12-31T23:19:27.600Z,100311.50
2022-12-31T23:22:13.235Z,100245.34
2022-12-31T23:24:39.854Z,100314.38
2022-12-31T23:27:07.308Z,100357.50
2022-12-31T23:29:33.882Z,100294.47
2022-12-31T23:32:00.543Z,100280.72
2022-12-31T23:34:27.253Z,100264.34
2022-12-31T23:36:54.001Z,100289.78
2022-12-31T23:39:20.732Z,100299.56
2022-12-31T23:41:47.363Z,100315.22
2022-12-31T23:44:13.956Z,100229.94
2022-12-31T23:46:41.068Z,100202.13
2022-12-31T23:49:07.746Z,100291.84
2022-12-31T23:51:36.579Z,100310.00
2022-12-31T23:54:07.606Z,100327.47
2022-12-31T23:56:34.373Z,100268.69
2022-12-31T23:59:01.068Z,100247.09
